Terminal Aerodrome Forecast
Issued by NWS Green Bay, WI

Home | Current Version | Previous Version | Text Only | Print | Product List | Glossary On
Versions: 1 2 3 4 5 6 7 8 9 10 11 12 13 14 15 16 17 18 19 20 21 22 23 24 25 26 27
707
FTUS43 KGRB 241135
TAFGRB
TAF
KGRB 241135Z 2412/2512 19007KT P6SM SCT090 BKN250
     FM241600 21009G16KT P6SM SCT050 BKN080
      TEMPO 2416/2419 -SHRA BKN050
     FM242200 21007KT P6SM VCTS BKN040CB
     FM250200 30005KT P6SM SCT035 BKN250
     FM250600 04006KT P6SM SCT007 BKN250
      TEMPO 2508/2512 4SM BR BKN007=

USA.gov is the U.S. government's official web portal to all federal, state and local government web resources and services.